createdAt,value
2018-01-30T00:00:38.946Z,7.11
2018-01-30T00:01:38.936Z,7.13
2018-01-30T00:02:38.792Z,7.14
2018-01-30T00:03:38.889Z,7.14
2018-01-30T00:04:38.865Z,7.13
2018-01-30T00:05:38.962Z,7.13
2018-01-30T00:06:39.610Z,7.1
2018-01-30T00:07:39.099Z,7.14
2018-01-30T00:08:39.756Z,7.12
2018-01-30T00:09:39.646Z,7.13
2018-01-30T00:10:39.245Z,7.1
2018-01-30T00:11:38.822Z,7.14
2018-01-30T00:12:39.355Z,7.15
2018-01-30T00:13:39.014Z,7.14
2018-01-30T00:14:38.986Z,7.14
2018-01-30T00:15:38.823Z,7.12
2018-01-30T00:16:39.423Z,7.2
2018-01-30T00:17:39.111Z,7.25
2018-01-30T00:18:38.888Z,7.23
2018-01-30T00:19:39.023Z,7.29
2018-01-30T00:20:39.022Z,7.26
2018-01-30T00:21:39.182Z,7.26
2018-01-30T00:22:39.000Z,7.28
2018-01-30T00:23:38.898Z,7.29
2018-01-30T00:24:38.944Z,7.28
2018-01-30T00:25:39.223Z,7.25
2018-01-30T00:26:39.528Z,7.21
2018-01-30T00:27:39.004Z,7.22
2018-01-30T00:28:38.767Z,7.23
2018-01-30T00:29:38.757Z,7.23
2018-01-30T00:30:38.836Z,7.21
2018-01-30T00:31:39.082Z,7.21
2018-01-30T00:32:38.852Z,7.2
2018-01-30T00:33:39.168Z,7.21
2018-01-30T00:34:38.905Z,7.19
2018-01-30T00:35:39.123Z,7.21
2018-01-30T00:36:39.096Z,7.2
2018-01-30T00:37:38.934Z,7.18
2018-01-30T00:38:38.916Z,7.22
2018-01-30T00:39:39.059Z,7.22
2018-01-30T00:40:39.131Z,7.2
2018-01-30T00:41:38.852Z,7.23
2018-01-30T00:42:38.975Z,7.23
2018-01-30T00:43:39.073Z,7.23
2018-01-30T00:44:38.893Z,7.2
2018-01-30T00:45:38.985Z,7.21
2018-01-30T00:46:38.873Z,7.24
2018-01-30T00:47:38.931Z,7.23
2018-01-30T00:48:38.960Z,7.23
2018-01-30T00:49:38.957Z,7.2
2018-01-30T00:50:39.052Z,7.19
2018-01-30T00:51:38.795Z,7.2
2018-01-30T00:52:39.248Z,7.23
2018-01-30T00:53:38.858Z,7.2
2018-01-30T00:54:38.854Z,7.21
2018-01-30T00:55:38.769Z,7.19
2018-01-30T00:56:39.042Z,7.21
2018-01-30T00:57:39.076Z,7.21
2018-01-30T00:58:39.111Z,7.19
2018-01-30T00:59:38.982Z,7.17
2018-01-30T01:00:38.991Z,7.15
2018-01-30T01:01:39.548Z,7.22
2018-01-30T01:02:38.847Z,7.17
2018-01-30T01:03:38.827Z,7.2
2018-01-30T01:04:38.799Z,7.21
2018-01-30T01:05:39.017Z,7.19
2018-01-30T01:06:39.066Z,7.21
2018-01-30T01:07:39.072Z,7.21
2018-01-30T01:08:38.852Z,7.19
2018-01-30T01:09:38.781Z,7.21
2018-01-30T01:10:38.957Z,7.21
2018-01-30T01:11:38.988Z,7.2
2018-01-30T01:12:39.225Z,7.2
2018-01-30T01:13:39.448Z,7.21
2018-01-30T01:14:38.867Z,7.18
2018-01-30T01:15:39.116Z,7.19
2018-01-30T01:16:39.629Z,7.2
2018-01-30T01:17:39.073Z,7.21
2018-01-30T01:18:39.073Z,7.18
2018-01-30T01:19:38.848Z,7.21
2018-01-30T01:20:38.985Z,7.21
2018-01-30T01:21:38.845Z,7.19
2018-01-30T01:22:39.201Z,7.22
2018-01-30T01:23:39.357Z,7.19
2018-01-30T01:24:39.319Z,7.22
2018-01-30T01:25:39.149Z,7.21
2018-01-30T01:26:39.066Z,7.22
2018-01-30T01:27:38.990Z,7.22
2018-01-30T01:28:39.085Z,7.22
2018-01-30T01:29:39.440Z,7.22
2018-01-30T01:30:39.150Z,7.21
2018-01-30T01:31:39.245Z,7.24
2018-01-30T01:32:38.908Z,7.25
2018-01-30T01:33:39.990Z,7.23
2018-01-30T01:34:38.946Z,7.27
2018-01-30T01:35:39.142Z,7.21
2018-01-30T01:36:39.077Z,7.26
2018-01-30T01:37:38.909Z,7.26
2018-01-30T01:38:38.897Z,7.25
2018-01-30T01:39:39.214Z,7.29
2018-01-30T01:40:39.027Z,7.24
2018-01-30T01:41:38.956Z,7.24
2018-01-30T01:42:39.169Z,7.25
2018-01-30T01:43:38.990Z,7.31
2018-01-30T01:44:38.995Z,7.29
2018-01-30T01:45:39.131Z,7.29
2018-01-30T01:46:39.056Z,7.34
2018-01-30T01:47:39.972Z,7.3
2018-01-30T01:48:38.885Z,7.31
2018-01-30T01:49:39.568Z,7.34
2018-01-30T01:50:39.006Z,7.39
2018-01-30T01:51:39.282Z,7.44
2018-01-30T01:52:39.217Z,7.48
2018-01-30T01:53:39.027Z,7.5
2018-01-30T01:54:39.012Z,7.48
2018-01-30T01:55:39.165Z,7.55
2018-01-30T01:56:39.249Z,7.5
2018-01-30T01:57:38.880Z,7.55
2018-01-30T01:58:39.474Z,7.57
2018-01-30T01:59:38.896Z,7.57
2018-01-30T02:00:38.956Z,7.55
2018-01-30T02:01:39.277Z,7.52
2018-01-30T02:02:39.008Z,7.53
2018-01-30T02:03:39.138Z,7.54
2018-01-30T02:04:39.000Z,7.5
2018-01-30T02:05:39.133Z,7.45
2018-01-30T02:06:39.064Z,7.42
2018-01-30T02:07:39.064Z,7.39
2018-01-30T02:08:39.038Z,7.36
2018-01-30T02:09:38.922Z,7.29
2018-01-30T02:10:38.983Z,7.27
2018-01-30T02:11:39.133Z,7.28
2018-01-30T02:12:38.933Z,7.25
2018-01-30T02:13:39.554Z,7.23
2018-01-30T02:14:38.958Z,7.27
2018-01-30T02:15:39.593Z,7.24
2018-01-30T02:16:39.208Z,7.27
2018-01-30T02:17:39.161Z,7.28
2018-01-30T02:18:38.762Z,7.34
2018-01-30T02:19:39.740Z,7.37
2018-01-30T02:20:39.046Z,7.38
2018-01-30T02:21:39.242Z,7.34
2018-01-30T02:22:39.475Z,7.37
2018-01-30T02:23:40.072Z,7.35
2018-01-30T02:24:39.281Z,7.35
2018-01-30T02:25:40.059Z,7.31
2018-01-30T02:26:38.919Z,7.3
2018-01-30T02:27:38.884Z,7.24
2018-01-30T02:28:39.343Z,7.22
2018-01-30T02:29:39.192Z,7.29
2018-01-30T02:30:38.931Z,7.27
2018-01-30T02:31:40.136Z,7.27
2018-01-30T02:32:39.114Z,7.33
2018-01-30T02:33:39.050Z,7.29
2018-01-30T02:34:39.466Z,7.27
2018-01-30T02:35:39.051Z,7.34
2018-01-30T02:36:39.047Z,7.35
2018-01-30T02:37:39.072Z,7.33
2018-01-30T02:38:39.618Z,7.3
2018-01-30T02:39:39.226Z,7.3
2018-01-30T02:40:39.006Z,7.33
2018-01-30T02:41:39.086Z,7.35
2018-01-30T02:42:39.472Z,7.37
2018-01-30T02:43:39.426Z,7.38
2018-01-30T02:44:39.057Z,7.32
2018-01-30T02:45:39.245Z,7.3
2018-01-30T02:46:39.232Z,7.34
2018-01-30T02:47:39.092Z,7.38
2018-01-30T02:48:39.079Z,7.35
2018-01-30T02:49:39.788Z,7.36
2018-01-30T02:50:39.400Z,7.34
2018-01-30T02:51:39.224Z,7.28
2018-01-30T02:52:39.177Z,7.36
2018-01-30T02:53:39.860Z,7.41
2018-01-30T02:54:39.984Z,7.36
2018-01-30T02:55:39.186Z,7.39
2018-01-30T02:56:39.369Z,7.31
2018-01-30T02:57:39.137Z,7.39
2018-01-30T02:58:39.221Z,7.4
2018-01-30T02:59:39.085Z,7.39
2018-01-30T03:00:39.001Z,7.41
2018-01-30T03:01:39.325Z,7.4
2018-01-30T03:02:39.926Z,7.41
2018-01-30T03:03:39.317Z,7.39
2018-01-30T03:04:39.164Z,7.4
2018-01-30T03:05:39.340Z,7.38
2018-01-30T03:06:39.074Z,7.36
2018-01-30T03:07:38.118Z,7.38
2018-01-30T03:08:38.195Z,7.39
2018-01-30T03:09:38.300Z,7.35
2018-01-30T03:10:38.054Z,7.37
2018-01-30T03:11:38.131Z,7.36
2018-01-30T03:12:38.242Z,7.36
2018-01-30T03:13:38.078Z,7.34
2018-01-30T03:14:38.372Z,7.31
2018-01-30T03:15:38.230Z,7.27
2018-01-30T03:16:38.453Z,7.15
2018-01-30T03:17:38.853Z,7.11
2018-01-30T03:18:38.523Z,7.07
2018-01-30T03:19:38.289Z,7.14
2018-01-30T03:20:38.228Z,7.09
2018-01-30T03:21:38.305Z,6.99
2018-01-30T03:22:38.114Z,6.98
2018-01-30T03:23:38.205Z,6.92
2018-01-30T03:24:38.190Z,6.98
2018-01-30T03:25:38.480Z,6.91
2018-01-30T03:26:38.066Z,6.85
2018-01-30T03:27:38.123Z,6.6
2018-01-30T03:28:38.176Z,6.29
2018-01-30T03:29:38.752Z,6.31
2018-01-30T03:30:38.094Z,6.02
2018-01-30T03:31:38.334Z,6.01
2018-01-30T03:32:37.973Z,5.95
2018-01-30T03:33:38.082Z,6.05
2018-01-30T03:34:38.051Z,5.98
2018-01-30T03:35:38.042Z,5.77
2018-01-30T03:36:38.026Z,5.54
2018-01-30T03:37:38.154Z,5.53
2018-01-30T03:38:38.044Z,5.65
2018-01-30T03:39:38.228Z,5.74
2018-01-30T03:40:38.150Z,5.57
2018-01-30T03:41:38.084Z,5.47
2018-01-30T03:42:38.020Z,5.66
2018-01-30T03:43:38.072Z,5.58
2018-01-30T03:44:38.085Z,5.6
2018-01-30T03:45:38.094Z,5.37
2018-01-30T03:46:38.101Z,5.37
2018-01-30T03:47:38.041Z,5.45
2018-01-30T03:48:38.116Z,5.45
2018-01-30T03:49:38.237Z,5.48
2018-01-30T03:50:38.048Z,5.38
2018-01-30T03:51:38.062Z,5.38
2018-01-30T03:52:38.100Z,5.34
2018-01-30T03:53:37.974Z,5.34
2018-01-30T03:54:38.053Z,5.3
2018-01-30T03:55:37.947Z,5.34
2018-01-30T03:56:38.145Z,5.39
2018-01-30T03:57:38.112Z,5.39
2018-01-30T03:58:38.164Z,5.44
2018-01-30T03:59:38.066Z,5.36
2018-01-30T04:00:38.118Z,5.54
2018-01-30T04:01:38.021Z,5.28
2018-01-30T04:02:38.122Z,5.36
2018-01-30T04:03:38.228Z,5.3
2018-01-30T04:04:38.149Z,5.42
2018-01-30T04:05:38.073Z,5.31
2018-01-30T04:06:38.062Z,5.21
2018-01-30T04:07:38.111Z,5.3
2018-01-30T04:08:38.201Z,5.34
2018-01-30T04:09:38.097Z,5.4
2018-01-30T04:10:38.118Z,5.36
2018-01-30T04:11:38.887Z,5.23
2018-01-30T04:12:38.191Z,5.17
2018-01-30T04:13:38.157Z,5.23
2018-01-30T04:14:38.261Z,5.24
2018-01-30T04:15:38.095Z,5.23
2018-01-30T04:16:38.067Z,5.37
2018-01-30T04:17:38.177Z,5.4
2018-01-30T04:18:38.172Z,5.32
2018-01-30T04:19:38.053Z,5.27
2018-01-30T04:20:38.166Z,5.35
2018-01-30T04:21:38.194Z,5.27
2018-01-30T04:22:38.052Z,5.2
2018-01-30T04:23:38.187Z,5.1
2018-01-30T04:24:38.082Z,5.14
2018-01-30T04:25:38.053Z,5.21
2018-01-30T04:26:38.090Z,5.32
2018-01-30T04:27:38.195Z,5.28
2018-01-30T04:28:38.179Z,5.28
2018-01-30T04:29:38.185Z,5.33
2018-01-30T04:30:38.190Z,5.37
2018-01-30T04:31:38.172Z,5.2
2018-01-30T04:32:38.190Z,5.33
2018-01-30T04:33:38.045Z,5.28
2018-01-30T04:34:38.193Z,5.08
2018-01-30T04:35:38.085Z,5.19
2018-01-30T04:36:38.046Z,5.14
2018-01-30T04:37:38.238Z,5.06
2018-01-30T04:38:38.105Z,5
2018-01-30T04:39:38.215Z,5.07
2018-01-30T04:40:38.158Z,5.14
2018-01-30T04:41:38.159Z,5.2
2018-01-30T04:42:38.303Z,5.15
2018-01-30T04:43:38.296Z,5.29
2018-01-30T04:44:38.270Z,5.26
2018-01-30T04:45:38.080Z,5.31
2018-01-30T04:46:38.190Z,5.12
2018-01-30T04:47:38.145Z,5.25
2018-01-30T04:48:38.096Z,5.31
2018-01-30T04:49:38.112Z,5.24
2018-01-30T04:50:38.261Z,5.27
2018-01-30T04:51:38.312Z,5.28
2018-01-30T04:52:38.106Z,5.27
2018-01-30T04:53:38.111Z,5.3
2018-01-30T04:54:38.079Z,5.28
2018-01-30T04:55:38.136Z,5.27
2018-01-30T04:56:38.245Z,5.03
2018-01-30T04:57:38.222Z,4.96
2018-01-30T04:58:38.216Z,4.95
2018-01-30T04:59:38.224Z,4.97
2018-01-30T05:00:38.205Z,5.07
2018-01-30T05:01:38.150Z,5.01
2018-01-30T05:02:38.075Z,4.94
2018-01-30T05:03:38.085Z,5.04
2018-01-30T05:04:38.264Z,4.92
2018-01-30T05:05:38.186Z,4.94
2018-01-30T05:06:38.244Z,5
2018-01-30T05:07:38.296Z,4.73
2018-01-30T05:08:38.153Z,4.81
2018-01-30T05:09:39.159Z,4.78
2018-01-30T05:10:38.244Z,4.81
2018-01-30T05:11:38.318Z,4.85
2018-01-30T05:12:38.221Z,4.88
2018-01-30T05:13:38.150Z,4.86
2018-01-30T05:14:38.248Z,4.9
2018-01-30T05:15:38.175Z,4.89
2018-01-30T05:16:38.195Z,4.87
2018-01-30T05:17:38.199Z,4.87
2018-01-30T05:18:38.213Z,4.87
2018-01-30T05:19:38.231Z,4.91
2018-01-30T05:20:38.172Z,4.96
2018-01-30T05:21:38.237Z,4.93
2018-01-30T05:22:38.185Z,4.91
2018-01-30T05:23:38.261Z,4.92
2018-01-30T05:24:38.106Z,4.92
2018-01-30T05:25:38.275Z,4.96
2018-01-30T05:26:38.194Z,4.91
2018-01-30T05:27:38.176Z,4.95
2018-01-30T05:28:38.325Z,4.91
2018-01-30T05:29:38.325Z,4.91
2018-01-30T05:30:38.232Z,4.9
2018-01-30T05:31:38.277Z,4.91
2018-01-30T05:32:38.244Z,4.89
2018-01-30T05:33:38.249Z,4.84
2018-01-30T05:34:38.178Z,4.84
2018-01-30T05:35:38.282Z,4.83
2018-01-30T05:36:38.136Z,4.86
2018-01-30T05:39:49.783Z,4.83
2018-01-30T05:40:38.731Z,4.77
2018-01-30T05:41:38.668Z,4.78
2018-01-30T05:42:38.728Z,4.76
2018-01-30T05:43:38.798Z,4.76
2018-01-30T05:44:38.726Z,4.7
2018-01-30T05:45:38.878Z,4.7
2018-01-30T05:46:38.727Z,4.72
2018-01-30T05:47:38.703Z,4.71
2018-01-30T05:48:38.767Z,4.67
2018-01-30T05:49:38.862Z,4.65
2018-01-30T05:50:38.744Z,4.64
2018-01-30T05:51:38.767Z,4.57
2018-01-30T05:52:38.758Z,4.58
2018-01-30T05:53:38.821Z,4.51
2018-01-30T05:54:38.839Z,4.57
2018-01-30T05:55:38.733Z,4.51
2018-01-30T05:56:38.786Z,4.52
2018-01-30T05:57:38.849Z,4.54
2018-01-30T05:58:38.843Z,4.53
2018-01-30T05:59:38.677Z,4.5
2018-01-30T06:00:38.778Z,4.46
2018-01-30T06:01:38.899Z,4.5
2018-01-30T06:02:38.728Z,4.55
2018-01-30T06:03:38.733Z,4.49
2018-01-30T06:04:38.715Z,4.54
2018-01-30T06:05:38.778Z,4.48
2018-01-30T06:06:38.767Z,4.52
2018-01-30T06:08:38.848Z,4.49
2018-01-30T06:09:38.994Z,4.46
2018-01-30T06:10:38.964Z,4.54
2018-01-30T06:11:38.833Z,4.48
2018-01-30T06:12:38.920Z,4.45
2018-01-30T06:13:38.852Z,4.46
2018-01-30T06:14:38.934Z,4.44
2018-01-30T06:15:38.819Z,4.42
2018-01-30T06:16:38.773Z,4.44
2018-01-30T06:17:38.739Z,4.41
2018-01-30T06:18:38.835Z,4.35
2018-01-30T06:19:38.740Z,4.37
2018-01-30T06:20:38.814Z,4.39
2018-01-30T06:21:38.826Z,4.37
2018-01-30T06:22:38.781Z,4.41
2018-01-30T06:23:38.819Z,4.38
2018-01-30T06:24:38.789Z,4.34
2018-01-30T06:25:38.752Z,4.38
2018-01-30T06:26:38.923Z,4.38
2018-01-30T06:27:38.846Z,4.34
2018-01-30T06:28:38.835Z,4.35
2018-01-30T06:29:38.773Z,4.31
2018-01-30T06:30:38.884Z,4.29
2018-01-30T06:31:38.824Z,4.23
2018-01-30T06:32:38.749Z,4.28
2018-01-30T06:33:38.746Z,4.21
2018-01-30T06:34:38.842Z,4.27
2018-01-30T06:35:38.878Z,4.26
2018-01-30T06:36:38.839Z,4.26
2018-01-30T06:37:39.018Z,4.18
2018-01-30T06:38:38.737Z,4.18
2018-01-30T06:39:38.735Z,4.2
2018-01-30T06:40:39.080Z,4.21
2018-01-30T06:41:38.898Z,4.17
2018-01-30T06:42:38.876Z,4.09
2018-01-30T06:43:38.906Z,4.12
2018-01-30T06:44:38.916Z,4.06
2018-01-30T06:45:39.048Z,4.06
2018-01-30T06:46:38.814Z,4.12
2018-01-30T06:47:38.865Z,4.08
2018-01-30T06:48:38.763Z,4.09
2018-01-30T06:49:38.887Z,4.09
2018-01-30T06:50:38.825Z,4.11
2018-01-30T06:51:38.786Z,4.08
2018-01-30T06:52:38.800Z,4.05
2018-01-30T06:53:38.821Z,4.1
2018-01-30T06:54:38.841Z,4.08
2018-01-30T06:55:38.921Z,3.98
2018-01-30T06:56:38.805Z,3.95
2018-01-30T06:57:38.728Z,3.93
2018-01-30T06:58:38.991Z,3.93
2018-01-30T06:59:38.879Z,3.93
2018-01-30T07:00:39.129Z,3.82
2018-01-30T07:01:38.888Z,3.79
2018-01-30T07:02:38.812Z,3.85
2018-01-30T07:03:38.724Z,3.87
2018-01-30T07:04:38.906Z,3.8
2018-01-30T07:05:38.889Z,3.79
2018-01-30T07:06:38.936Z,3.8
2018-01-30T07:07:38.795Z,3.84
2018-01-30T07:08:38.866Z,3.83
2018-01-30T07:09:38.949Z,3.86
2018-01-30T07:10:38.940Z,3.83
2018-01-30T07:11:38.930Z,3.82
2018-01-30T07:12:38.936Z,3.82
2018-01-30T07:13:38.885Z,3.76
2018-01-30T07:14:38.826Z,3.84
2018-01-30T07:15:38.823Z,3.78
2018-01-30T07:16:38.800Z,3.73
2018-01-30T07:17:38.971Z,3.8
2018-01-30T07:18:38.922Z,3.78
2018-01-30T07:19:38.924Z,3.86
2018-01-30T07:20:38.819Z,3.8
2018-01-30T07:21:38.839Z,3.82
2018-01-30T07:22:38.924Z,3.78
2018-01-30T07:23:38.810Z,3.75
2018-01-30T07:24:38.851Z,3.77
2018-01-30T07:25:38.877Z,3.74
2018-01-30T07:26:38.909Z,3.68
2018-01-30T07:27:38.844Z,3.63
2018-01-30T07:28:38.795Z,3.65
2018-01-30T07:29:38.786Z,3.64
2018-01-30T07:30:38.894Z,3.6
2018-01-30T07:31:38.841Z,3.59
2018-01-30T07:32:38.892Z,3.64
2018-01-30T07:33:38.854Z,3.63
2018-01-30T07:34:39.129Z,3.65
2018-01-30T07:35:38.857Z,3.59
2018-01-30T07:36:38.851Z,3.64
2018-01-30T07:37:38.833Z,3.66
2018-01-30T07:38:38.938Z,3.6
2018-01-30T07:39:38.936Z,3.54
2018-01-30T07:40:38.916Z,3.63
2018-01-30T07:41:38.835Z,3.58
2018-01-30T07:42:38.947Z,3.7
2018-01-30T07:43:38.924Z,3.67
2018-01-30T07:44:38.907Z,3.72
2018-01-30T07:45:38.926Z,3.67
2018-01-30T07:46:38.831Z,3.77
2018-01-30T07:47:38.859Z,3.68
2018-01-30T07:48:38.949Z,3.73
2018-01-30T07:49:38.937Z,3.69
2018-01-30T07:50:38.901Z,3.72
2018-01-30T07:51:39.447Z,3.77
2018-01-30T07:52:38.917Z,3.76
2018-01-30T07:53:38.901Z,3.76
2018-01-30T07:54:39.063Z,3.71
2018-01-30T07:55:38.954Z,3.69
2018-01-30T07:56:38.988Z,3.67
2018-01-30T07:57:39.024Z,3.74
2018-01-30T07:58:38.941Z,3.78
2018-01-30T07:59:39.026Z,3.75
2018-01-30T08:00:38.940Z,3.84
2018-01-30T08:01:38.983Z,3.81
2018-01-30T08:02:39.004Z,3.88
2018-01-30T08:03:38.831Z,3.78
2018-01-30T08:04:38.883Z,3.82
2018-01-30T08:05:38.947Z,3.81
2018-01-30T08:06:38.971Z,3.84
2018-01-30T08:07:39.168Z,3.89
2018-01-30T08:08:38.865Z,3.83
2018-01-30T08:09:38.996Z,3.82
2018-01-30T08:10:39.047Z,3.86
2018-01-30T08:11:38.964Z,3.82
2018-01-30T08:12:39.801Z,3.91
2018-01-30T08:13:38.900Z,3.88
2018-01-30T08:14:38.981Z,3.91
2018-01-30T08:15:39.019Z,3.94
2018-01-30T08:16:39.031Z,4
2018-01-30T08:17:38.904Z,4.06
2018-01-30T08:18:38.973Z,4.07
2018-01-30T08:19:39.099Z,3.99
2018-01-30T08:20:38.965Z,4.02
2018-01-30T08:21:38.945Z,4
2018-01-30T08:22:39.045Z,4.01
2018-01-30T08:23:38.849Z,4.02
2018-01-30T08:24:38.901Z,4.09
2018-01-30T08:25:39.014Z,4.1
2018-01-30T08:26:39.591Z,4.11
2018-01-30T08:27:38.966Z,4.2
2018-01-30T08:28:38.941Z,4.09
2018-01-30T08:29:38.908Z,4.2
2018-01-30T08:30:38.947Z,4.22
2018-01-30T08:31:38.836Z,4.23
2018-01-30T08:32:39.048Z,4.2
2018-01-30T08:33:38.999Z,4.3
2018-01-30T08:34:38.985Z,4.25
2018-01-30T08:35:38.972Z,4.26
2018-01-30T08:36:38.979Z,4.36
2018-01-30T08:37:39.004Z,4.38
2018-01-30T08:38:38.845Z,4.27
2018-01-30T08:39:38.862Z,4.19
2018-01-30T08:40:39.038Z,4.22
2018-01-30T08:41:38.835Z,4.29
2018-01-30T08:42:38.983Z,4.35
2018-01-30T08:43:38.948Z,4.3
2018-01-30T08:44:38.814Z,4.34
2018-01-30T08:45:38.926Z,4.38
2018-01-30T08:46:38.924Z,4.31
2018-01-30T08:47:38.858Z,4.24
2018-01-30T08:48:38.920Z,4.22
2018-01-30T08:49:38.929Z,4.33
2018-01-30T08:50:38.899Z,4.28
2018-01-30T08:51:38.935Z,4.3
2018-01-30T08:52:38.890Z,4.29
2018-01-30T08:53:38.853Z,4.3
2018-01-30T08:54:38.882Z,4.39
2018-01-30T08:55:38.979Z,4.36
2018-01-30T08:56:39.011Z,4.39
2018-01-30T08:57:38.997Z,4.39
2018-01-30T08:58:38.806Z,4.36
2018-01-30T08:59:38.796Z,4.31
2018-01-30T09:00:38.914Z,4.34
2018-01-30T09:01:39.134Z,4.32
2018-01-30T09:02:38.847Z,4.31
2018-01-30T09:03:38.845Z,4.34
2018-01-30T09:04:38.859Z,4.41
2018-01-30T09:05:38.933Z,4.39
2018-01-30T09:06:38.966Z,4.41
2018-01-30T09:07:39.357Z,4.43
2018-01-30T09:08:39.019Z,4.41
2018-01-30T09:09:38.873Z,4.43
2018-01-30T09:10:39.014Z,4.45
2018-01-30T09:11:38.045Z,4.42
2018-01-30T09:12:37.938Z,4.18
2018-01-30T09:13:38.365Z,4.28
2018-01-30T09:14:37.973Z,4.38
2018-01-30T09:15:37.995Z,4.32
2018-01-30T09:16:37.889Z,4.25
2018-01-30T09:17:38.014Z,4.25
2018-01-30T09:18:38.151Z,4.19
2018-01-30T09:19:37.971Z,4.16
2018-01-30T09:20:38.009Z,4.23
2018-01-30T09:21:38.966Z,4.15
2018-01-30T09:22:38.020Z,4.15
2018-01-30T09:23:37.979Z,4.2
2018-01-30T09:24:38.013Z,4.2
2018-01-30T09:25:38.027Z,4.17
2018-01-30T09:26:38.064Z,4.22
2018-01-30T09:27:38.051Z,4.27
2018-01-30T09:28:38.121Z,4.28
2018-01-30T09:29:38.088Z,4.31
2018-01-30T09:30:37.924Z,4.44
2018-01-30T09:31:37.999Z,4.39
2018-01-30T09:32:38.860Z,4.48
2018-01-30T09:33:38.320Z,4.47
2018-01-30T09:34:38.031Z,4.49
2018-01-30T09:35:37.975Z,4.34
2018-01-30T09:36:38.041Z,4.35
2018-01-30T09:37:38.059Z,4.42
2018-01-30T09:38:37.957Z,4.44
2018-01-30T09:39:37.992Z,4.48
2018-01-30T09:40:38.165Z,4.54
2018-01-30T09:41:38.207Z,4.6
2018-01-30T09:42:38.189Z,4.59
2018-01-30T09:43:38.153Z,4.68
2018-01-30T09:44:38.191Z,4.58
2018-01-30T09:45:38.258Z,4.66
2018-01-30T09:46:38.188Z,4.64
2018-01-30T09:47:38.099Z,4.63
2018-01-30T09:48:38.140Z,4.62
2018-01-30T09:49:38.196Z,4.63
2018-01-30T09:50:38.677Z,4.67
2018-01-30T09:51:38.186Z,4.62
2018-01-30T09:52:38.170Z,4.7
2018-01-30T09:53:38.222Z,4.52
2018-01-30T09:54:38.296Z,4.61
2018-01-30T09:55:38.396Z,4.6
2018-01-30T09:56:38.047Z,4.7
2018-01-30T09:57:38.060Z,4.73
2018-01-30T09:58:38.205Z,4.82
2018-01-30T09:59:38.192Z,4.7
2018-01-30T10:00:39.562Z,4.67
2018-01-30T10:01:38.240Z,4.56
2018-01-30T10:02:38.121Z,4.62
2018-01-30T10:03:38.759Z,4.55
2018-01-30T10:04:38.176Z,4.64
2018-01-30T10:05:38.036Z,4.76
2018-01-30T10:06:38.304Z,4.76
2018-01-30T10:07:38.071Z,4.74
2018-01-30T10:08:38.395Z,4.65
2018-01-30T10:09:38.072Z,4.61
2018-01-30T10:10:38.078Z,4.71
2018-01-30T10:11:38.375Z,4.56
2018-01-30T10:12:38.249Z,4.53
2018-01-30T10:13:38.222Z,4.5
2018-01-30T10:14:38.615Z,4.39
2018-01-30T10:15:38.328Z,4.41
2018-01-30T10:16:38.317Z,4.12
2018-01-30T10:17:38.210Z,4.33
2018-01-30T10:18:38.377Z,4.27
2018-01-30T10:19:38.689Z,4.03
2018-01-30T10:20:38.668Z,4.03
2018-01-30T10:21:38.325Z,4.33
2018-01-30T10:22:38.244Z,4.4
2018-01-30T10:23:38.368Z,4.37
2018-01-30T10:24:38.242Z,4.55
2018-01-30T10:25:38.533Z,4.57
2018-01-30T10:26:38.194Z,4.69
2018-01-30T10:27:38.317Z,4.57
2018-01-30T10:28:38.524Z,4.63
2018-01-30T10:29:39.421Z,4.6
2018-01-30T10:30:39.513Z,4.27
2018-01-30T10:31:40.014Z,4.6
2018-01-30T10:32:39.191Z,4.55
2018-01-30T10:33:38.421Z,4.34
2018-01-30T10:34:38.455Z,4.57
2018-01-30T10:35:38.294Z,4.45
2018-01-30T10:36:38.685Z,4.65
2018-01-30T10:37:38.981Z,4.63
2018-01-30T10:38:38.943Z,4.56
2018-01-30T10:39:39.473Z,4.66
2018-01-30T10:40:38.310Z,4.62
2018-01-30T10:41:38.863Z,4.61
2018-01-30T10:42:39.937Z,4.58
2018-01-30T10:43:38.875Z,4.61
2018-01-30T10:44:39.243Z,4.51
2018-01-30T10:45:38.567Z,4.44
2018-01-30T10:46:38.571Z,4.6
2018-01-30T10:47:38.538Z,4.69
2018-01-30T10:48:38.545Z,4.47
2018-01-30T10:49:39.142Z,4.59
2018-01-30T10:50:38.598Z,4.63
2018-01-30T10:51:38.669Z,4.37
2018-01-30T10:52:38.781Z,4.45
2018-01-30T10:53:38.614Z,4.69
2018-01-30T10:54:38.680Z,4.57
2018-01-30T10:55:39.786Z,4.59
2018-01-30T10:56:39.409Z,4.4
2018-01-30T10:57:38.655Z,4.39
2018-01-30T10:58:38.581Z,4.39
2018-01-30T10:59:38.586Z,4.22
2018-01-30T11:00:38.650Z,4.13
2018-01-30T11:01:39.606Z,4.28
2018-01-30T11:02:38.641Z,4.39
2018-01-30T11:03:38.612Z,4.39
2018-01-30T11:04:38.616Z,4.37
2018-01-30T11:05:38.721Z,4.44
2018-01-30T11:06:39.310Z,4.49
2018-01-30T11:07:38.586Z,4.65
2018-01-30T11:08:38.739Z,4.46
2018-01-30T11:09:39.256Z,4.26
2018-01-30T11:10:38.610Z,4.15
2018-01-30T11:11:39.064Z,4.2
2018-01-30T11:12:38.652Z,4.17
2018-01-30T11:13:38.602Z,4.16
2018-01-30T11:14:38.727Z,4.25
2018-01-30T11:15:38.758Z,4.31
2018-01-30T11:16:39.853Z,4.24
2018-01-30T11:17:38.657Z,4.03
2018-01-30T11:18:38.933Z,4.18
2018-01-30T11:19:38.694Z,4.41
2018-01-30T11:20:38.589Z,4.49
2018-01-30T11:21:38.554Z,4.33
2018-01-30T11:22:38.759Z,4.17
2018-01-30T11:23:38.745Z,4.2
2018-01-30T11:24:38.636Z,3.86
2018-01-30T11:25:38.724Z,3.88
2018-01-30T11:26:38.699Z,4.09
2018-01-30T11:27:38.884Z,4.03
2018-01-30T11:28:38.596Z,4.28
2018-01-30T11:29:38.561Z,4.28
2018-01-30T11:30:38.531Z,4.47
2018-01-30T11:31:38.690Z,4.5
2018-01-30T11:32:38.802Z,4.38
2018-01-30T11:33:38.552Z,4.43
2018-01-30T11:34:38.641Z,4.49
2018-01-30T11:35:38.693Z,4.47
2018-01-30T11:36:38.515Z,4.51
2018-01-30T11:37:38.677Z,4.58
2018-01-30T11:38:38.631Z,4.63
2018-01-30T11:39:38.586Z,4.64
2018-01-30T11:40:38.673Z,4.61
2018-01-30T11:41:39.405Z,4.53
2018-01-30T11:42:38.483Z,4.67
2018-01-30T11:43:38.336Z,4.62
2018-01-30T11:44:38.435Z,4.69
2018-01-30T11:45:38.319Z,4.54
2018-01-30T11:46:38.448Z,4.34
2018-01-30T11:47:38.251Z,4.5
2018-01-30T11:48:38.442Z,4.69
2018-01-30T11:49:38.428Z,4.78
2018-01-30T11:50:38.416Z,4.76
2018-01-30T11:51:38.246Z,4.79
2018-01-30T11:52:38.212Z,4.87
2018-01-30T11:53:38.373Z,4.87
2018-01-30T11:54:38.387Z,4.85
2018-01-30T11:55:38.286Z,4.86
2018-01-30T11:56:38.305Z,4.55
2018-01-30T11:57:38.287Z,4.57
2018-01-30T11:58:38.370Z,4.5
2018-01-30T11:59:38.868Z,4.53
2018-01-30T12:00:38.406Z,4.79
2018-01-30T12:01:38.392Z,4.76
2018-01-30T12:02:38.425Z,4.65
2018-01-30T12:03:38.457Z,4.86
2018-01-30T12:04:38.663Z,4.66
2018-01-30T12:05:38.523Z,4.63
2018-01-30T12:06:38.372Z,4.76
2018-01-30T12:07:38.331Z,4.7
2018-01-30T12:08:38.370Z,4.78
2018-01-30T12:09:38.325Z,4.69
2018-01-30T12:10:38.444Z,4.53
2018-01-30T12:11:38.418Z,4.67
2018-01-30T12:12:38.672Z,4.94
2018-01-30T12:13:38.568Z,4.81
2018-01-30T12:14:38.597Z,4.81
2018-01-30T12:15:38.504Z,4.9
2018-01-30T12:16:38.427Z,4.63
2018-01-30T12:17:38.437Z,4.54
2018-01-30T12:18:38.500Z,4.62
2018-01-30T12:19:38.461Z,4.92
2018-01-30T12:20:38.501Z,4.91
2018-01-30T12:21:38.472Z,4.93
2018-01-30T12:22:38.493Z,4.68
2018-01-30T12:23:38.558Z,4.72
2018-01-30T12:24:38.548Z,4.69
2018-01-30T12:25:38.587Z,4.56
2018-01-30T12:26:38.533Z,4.71
2018-01-30T12:27:38.533Z,4.7
2018-01-30T12:28:38.478Z,4.79
2018-01-30T12:29:38.497Z,4.77
2018-01-30T12:30:38.513Z,4.7
2018-01-30T12:31:38.435Z,4.74
2018-01-30T12:32:38.608Z,4.78
2018-01-30T12:33:39.054Z,4.62
2018-01-30T12:34:38.581Z,4.89
2018-01-30T12:35:38.573Z,4.91
2018-01-30T12:36:38.616Z,5.02
2018-01-30T12:37:38.903Z,5.05
2018-01-30T12:38:38.425Z,5.06
2018-01-30T12:39:38.579Z,4.95
2018-01-30T12:40:38.468Z,5.14
2018-01-30T12:41:38.730Z,5.06
2018-01-30T12:42:38.957Z,5.11
2018-01-30T12:43:38.489Z,5
2018-01-30T12:44:38.612Z,5.22
2018-01-30T12:45:38.524Z,5.09
2018-01-30T12:46:38.584Z,4.88
2018-01-30T12:47:38.678Z,4.82
2018-01-30T12:48:38.522Z,5.05
2018-01-30T12:49:38.510Z,5.13
2018-01-30T12:50:38.630Z,5.21
2018-01-30T12:51:38.614Z,5.27
2018-01-30T12:52:38.497Z,5.17
2018-01-30T12:53:38.592Z,5.13
2018-01-30T12:54:38.511Z,4.86
2018-01-30T12:55:38.479Z,5.09
2018-01-30T12:56:38.609Z,5.06
2018-01-30T12:57:38.470Z,5.27
2018-01-30T12:58:38.595Z,5.21
2018-01-30T12:59:38.630Z,5.1
2018-01-30T13:00:38.566Z,5.31
2018-01-30T13:01:38.644Z,5.22
2018-01-30T13:02:38.534Z,5.08
2018-01-30T13:03:38.650Z,4.76
2018-01-30T13:04:38.632Z,4.91
2018-01-30T13:05:38.432Z,5.1
2018-01-30T13:06:38.473Z,5.13
2018-01-30T13:07:38.416Z,5.12
2018-01-30T13:08:38.631Z,5.16
2018-01-30T13:09:38.618Z,5.29
2018-01-30T13:10:38.468Z,5.23
2018-01-30T13:11:38.453Z,5.18
2018-01-30T13:12:38.777Z,5.34
2018-01-30T13:13:38.795Z,5.13
2018-01-30T13:14:38.618Z,4.91
2018-01-30T13:15:38.794Z,4.81
2018-01-30T13:16:38.763Z,4.81
2018-01-30T13:17:38.783Z,4.91
2018-01-30T13:18:38.994Z,4.98
2018-01-30T13:19:38.745Z,5.13
2018-01-30T13:20:38.819Z,5.24
2018-01-30T13:21:38.713Z,5.18
2018-01-30T13:22:38.809Z,5.23
2018-01-30T13:23:38.737Z,5.21
2018-01-30T13:24:38.879Z,5.28